createdAt,value
2018-09-14T00:00:45.956Z,9.67
2018-09-14T00:03:15.196Z,10.70
2018-09-14T00:05:44.947Z,10.00
2018-09-14T00:08:14.035Z,8.37
2018-09-14T00:10:43.202Z,8.63
2018-09-14T00:13:12.614Z,9.20
2018-09-14T00:15:41.716Z,6.83
2018-09-14T00:18:11.144Z,9.60
2018-09-14T00:20:40.227Z,8.67
2018-09-14T00:23:10.175Z,10.57
2018-09-14T00:25:39.356Z,11.40
2018-09-14T00:28:08.555Z,9.00
2018-09-14T00:30:37.685Z,10.07
2018-09-14T00:33:10.737Z,5.37
2018-09-14T00:35:39.820Z,8.90
2018-09-14T00:38:08.926Z,6.80
2018-09-14T00:40:39.090Z,7.03
2018-09-14T00:43:08.241Z,10.40
2018-09-14T00:45:37.949Z,7.03
2018-09-14T00:48:08.886Z,7.57
2018-09-14T00:50:38.814Z,7.93
2018-09-14T00:53:07.930Z,9.70
2018-09-14T00:55:37.257Z,8.10
2018-09-14T00:58:07.831Z,9.30
2018-09-14T01:00:37.976Z,7.23
2018-09-14T01:03:07.200Z,8.97
2018-09-14T01:05:36.291Z,7.17
2018-09-14T01:08:05.471Z,8.03
2018-09-14T01:10:34.680Z,8.60
2018-09-14T01:13:04.211Z,12.17
2018-09-14T01:15:33.360Z,6.70
2018-09-14T01:18:02.641Z,9.03
2018-09-14T01:20:31.815Z,6.20
2018-09-14T01:23:02.383Z,8.17
2018-09-14T01:25:31.505Z,7.23
2018-09-14T01:28:00.630Z,7.73
2018-09-14T01:30:30.073Z,10.10
2018-09-14T01:32:59.306Z,7.53
2018-09-14T01:35:35.840Z,12.30
2018-09-14T01:38:05.493Z,11.57
2018-09-14T01:40:34.662Z,9.93
2018-09-14T01:43:03.798Z,10.13
2018-09-14T01:45:33.234Z,8.57
2018-09-14T01:48:03.071Z,10.90
2018-09-14T01:50:32.251Z,11.53
2018-09-14T01:53:01.288Z,8.47
2018-09-14T01:55:30.355Z,9.37
2018-09-14T01:57:59.992Z,10.47
2018-09-14T02:00:40.976Z,8.80
2018-09-14T02:03:10.034Z,9.37
2018-09-14T02:05:39.135Z,9.50
2018-09-14T02:08:20.704Z,11.10
2018-09-14T02:10:50.681Z,9.13
2018-09-14T02:13:21.701Z,8.67
2018-09-14T02:15:50.880Z,6.30
2018-09-14T02:18:20.239Z,8.33
2018-09-14T02:20:49.328Z,7.80
2018-09-14T02:23:18.393Z,8.83
2018-09-14T02:25:47.449Z,8.13
2018-09-14T02:28:16.566Z,6.37
2018-09-14T02:30:45.698Z,7.43
2018-09-14T02:33:19.115Z,10.00
2018-09-14T02:35:48.225Z,7.00
2018-09-14T02:38:17.384Z,10.57
2018-09-14T02:40:46.524Z,6.83
2018-09-14T02:43:15.729Z,6.73
2018-09-14T02:45:44.810Z,7.17
2018-09-14T02:48:16.336Z,7.83
2018-09-14T02:50:46.004Z,6.93
2018-09-14T02:53:15.524Z,7.10
2018-09-14T02:55:44.755Z,9.97
2018-09-14T02:58:15.126Z,9.20
2018-09-14T03:00:45.713Z,6.70
2018-09-14T03:03:14.793Z,8.37
2018-09-14T03:05:43.946Z,9.30
2018-09-14T03:08:13.049Z,8.73
2018-09-14T03:10:42.088Z,8.47
2018-09-14T03:13:11.701Z,11.90
2018-09-14T03:15:40.725Z,7.93
2018-09-14T03:18:09.866Z,13.07
2018-09-14T03:20:39.767Z,9.37
2018-09-14T03:23:09.189Z,13.00
2018-09-14T03:25:38.301Z,9.60
2018-09-14T03:28:08.494Z,7.60
2018-09-14T03:30:39.219Z,12.57
2018-09-14T03:33:08.249Z,7.40
2018-09-14T03:35:37.378Z,7.43
2018-09-14T03:38:06.454Z,7.90
2018-09-14T03:40:35.600Z,15.37
2018-09-14T03:43:04.667Z,12.80
2018-09-14T03:45:35.497Z,9.13
2018-09-14T03:48:04.598Z,10.93
2018-09-14T03:50:33.729Z,12.00
2018-09-14T03:53:02.905Z,10.53
2018-09-14T03:55:37.129Z,8.73
2018-09-14T03:58:06.226Z,8.97
2018-09-14T04:00:35.302Z,8.63
2018-09-14T04:03:05.038Z,6.57
2018-09-14T04:05:34.623Z,11.30
2018-09-14T04:08:06.234Z,8.13
2018-09-14T04:10:35.534Z,5.90
2018-09-14T04:13:06.183Z,6.50
2018-09-14T04:15:37.045Z,7.33
2018-09-14T04:18:06.640Z,10.37
2018-09-14T04:20:36.764Z,8.63
2018-09-14T04:23:07.695Z,10.23
2018-09-14T04:25:36.894Z,7.43
2018-09-14T04:28:06.075Z,6.77
2018-09-14T04:30:35.344Z,13.33
2018-09-14T04:33:05.048Z,11.37
2018-09-14T04:35:34.255Z,12.33
2018-09-14T04:38:03.623Z,8.27
2018-09-14T04:40:32.783Z,9.17
2018-09-14T04:43:03.234Z,11.83
2018-09-14T04:45:32.719Z,5.80
2018-09-14T04:48:01.909Z,8.87
2018-09-14T04:50:31.070Z,7.10
2018-09-14T04:53:00.209Z,8.30
2018-09-14T04:55:29.823Z,12.37
2018-09-14T04:58:01.274Z,8.30
2018-09-14T05:00:35.206Z,8.37
2018-09-14T05:03:04.566Z,7.43
2018-09-14T05:05:36.577Z,10.30
2018-09-14T05:08:08.565Z,8.10
2018-09-14T05:10:37.718Z,6.47
2018-09-14T05:13:07.229Z,10.97
2018-09-14T05:15:36.295Z,10.37
2018-09-14T05:18:06.419Z,8.00
2018-09-14T05:20:35.709Z,8.90
2018-09-14T05:23:07.814Z,9.00
2018-09-14T05:25:38.278Z,10.17
2018-09-14T05:28:07.402Z,9.63
2018-09-14T05:30:36.725Z,11.57
2018-09-14T05:33:05.778Z,11.57
2018-09-14T05:35:34.904Z,10.50
2018-09-14T05:38:04.699Z,9.00
2018-09-14T05:40:33.713Z,11.13
2018-09-14T05:43:04.409Z,8.57
2018-09-14T05:45:37.078Z,12.57
2018-09-14T05:48:09.024Z,6.83
2018-09-14T05:50:38.158Z,8.63
2018-09-14T05:53:08.525Z,10.50
2018-09-14T05:55:37.720Z,9.00
2018-09-14T05:58:09.234Z,17.57
2018-09-14T06:00:39.070Z,15.07
2018-09-14T06:03:08.720Z,12.77
2018-09-14T06:05:40.198Z,15.47
2018-09-14T06:08:09.974Z,14.43
2018-09-14T06:10:40.650Z,10.37
2018-09-14T06:13:10.094Z,9.37
2018-09-14T06:15:39.640Z,8.57
2018-09-14T06:18:11.883Z,10.00
2018-09-14T06:20:42.200Z,14.73
2018-09-14T06:23:11.408Z,9.43
2018-09-14T06:25:40.554Z,12.53
2018-09-14T06:28:09.999Z,11.13
2018-09-14T06:30:39.189Z,11.33
2018-09-14T06:33:09.259Z,8.77
2018-09-14T06:35:38.533Z,11.10
2018-09-14T06:38:07.775Z,10.47
2018-09-14T06:40:36.995Z,10.33
2018-09-14T06:43:15.254Z,11.03
2018-09-14T06:45:44.364Z,9.60
2018-09-14T06:48:13.512Z,10.47
2018-09-14T06:50:42.715Z,10.17
2018-09-14T06:53:14.267Z,11.50
2018-09-14T06:55:43.446Z,10.80
2018-09-14T06:58:12.580Z,10.87
2018-09-14T07:00:42.658Z,13.33
2018-09-14T07:03:12.989Z,8.60
2018-09-14T07:05:44.384Z,10.90
2018-09-14T07:08:14.897Z,10.30
2018-09-14T07:10:44.122Z,12.73
2018-09-14T07:13:14.201Z,14.20
2018-09-14T07:15:43.384Z,11.90
2018-09-14T07:18:12.817Z,14.10
2018-09-14T07:20:41.987Z,14.17
2018-09-14T07:23:11.088Z,14.30
2018-09-14T07:25:40.223Z,16.70
2018-09-14T07:28:14.719Z,19.87
2018-09-14T07:30:43.911Z,21.20
2018-09-14T07:33:14.009Z,12.30
2018-09-14T07:35:44.849Z,19.87
2018-09-14T07:38:14.590Z,18.13
2018-09-14T07:40:43.761Z,16.97
2018-09-14T07:43:13.279Z,17.27
2018-09-14T07:45:42.633Z,16.53
2018-09-14T07:48:11.852Z,18.20
2018-09-14T07:50:41.765Z,23.10
2018-09-14T07:53:11.514Z,18.37
2018-09-14T07:55:40.682Z,19.20
2018-09-14T07:58:13.237Z,15.93
2018-09-14T08:00:43.008Z,20.63
2018-09-14T08:03:15.878Z,17.67
2018-09-14T08:05:46.934Z,22.80
2018-09-14T08:08:24.852Z,13.33
2018-09-14T08:10:54.964Z,19.90
2018-09-14T08:13:25.265Z,17.53
2018-09-14T08:15:57.014Z,18.63
2018-09-14T08:18:27.085Z,20.87
2018-09-14T08:20:56.332Z,20.93
2018-09-14T08:23:28.043Z,20.50
2018-09-14T08:25:57.656Z,16.23
2018-09-14T08:28:29.080Z,20.83
2018-09-14T08:31:00.130Z,21.10
2018-09-14T08:33:30.652Z,13.63
2018-09-14T08:36:01.123Z,18.27
2018-09-14T08:38:30.341Z,16.10
2018-09-14T08:41:01.425Z,18.10
2018-09-14T08:43:32.700Z,18.07
2018-09-14T08:46:04.321Z,15.83
2018-09-14T08:48:34.265Z,16.77
2018-09-14T08:51:03.502Z,16.27
2018-09-14T08:53:32.675Z,20.57
2018-09-14T08:56:01.894Z,19.10
2018-09-14T08:58:34.196Z,15.07
2018-09-14T09:01:03.712Z,18.33
2018-09-14T09:03:34.024Z,15.63
2018-09-14T09:06:03.843Z,17.00
2018-09-14T09:08:34.253Z,14.13
2018-09-14T09:11:03.566Z,13.17
2018-09-14T09:13:35.093Z,15.03
2018-09-14T09:16:04.298Z,18.47
2018-09-14T09:18:33.726Z,15.23
2018-09-14T09:21:04.159Z,14.53
2018-09-14T09:23:37.809Z,20.93
2018-09-14T09:26:07.097Z,18.33
2018-09-14T09:28:36.282Z,18.10
2018-09-14T09:31:08.335Z,14.63
2018-09-14T09:33:37.564Z,16.20
2018-09-14T09:36:06.998Z,13.50
2018-09-14T09:38:36.524Z,11.97
2018-09-14T09:41:05.867Z,14.97
2018-09-14T09:43:42.353Z,16.23
2018-09-14T09:46:12.573Z,18.47
2018-09-14T09:48:41.661Z,13.10
2018-09-14T09:51:10.855Z,15.93
2018-09-14T09:53:40.491Z,12.67
2018-09-14T09:56:10.472Z,14.17
2018-09-14T09:58:40.142Z,11.37
2018-09-14T10:01:14.333Z,13.53
2018-09-14T10:03:43.566Z,11.33
2018-09-14T10:06:19.070Z,14.13
2018-09-14T10:08:48.272Z,13.47
2018-09-14T10:11:18.523Z,15.00
2018-09-14T10:13:49.822Z,10.20
2018-09-14T10:16:33.934Z,12.30
2018-09-14T10:19:03.486Z,14.70
2018-09-14T10:21:36.488Z,13.03
2018-09-14T10:24:07.127Z,11.77
2018-09-14T10:26:39.168Z,16.00
2018-09-14T10:29:09.456Z,13.47
2018-09-14T10:31:43.755Z,18.03
2018-09-14T10:34:13.818Z,15.30
2018-09-14T10:36:43.418Z,20.27
2018-09-14T10:39:14.233Z,18.37
2018-09-14T10:41:44.398Z,23.57
2018-09-14T10:44:15.396Z,18.57
2018-09-14T10:46:45.097Z,18.30
2018-09-14T10:49:14.864Z,18.83
2018-09-14T10:51:45.309Z,18.13
2018-09-14T10:54:16.762Z,19.10
2018-09-14T10:56:46.003Z,18.80
2018-09-14T10:59:15.242Z,16.77
2018-09-14T11:01:44.818Z,16.80
2018-09-14T11:04:13.963Z,20.40
2018-09-14T11:06:44.095Z,15.23
2018-09-14T11:09:14.505Z,15.50
2018-09-14T11:11:53.179Z,14.63
2018-09-14T11:14:22.388Z,17.70
2018-09-14T11:16:52.363Z,16.07
2018-09-14T11:19:21.601Z,14.77
2018-09-14T11:21:51.273Z,14.30
2018-09-14T11:24:20.553Z,14.33
2018-09-14T11:26:51.192Z,16.70
2018-09-14T11:29:20.576Z,12.57
2018-09-14T11:31:50.106Z,18.57
2018-09-14T11:34:19.498Z,17.57
2018-09-14T11:36:51.652Z,14.90
2018-09-14T11:39:21.337Z,17.03
2018-09-14T11:41:50.551Z,15.23
2018-09-14T11:44:20.288Z,14.93
2018-09-14T11:46:52.703Z,19.93
2018-09-14T11:49:23.686Z,17.57
2018-09-14T11:51:54.524Z,15.70
2018-09-14T11:54:23.858Z,15.93
2018-09-14T11:56:53.944Z,17.80
2018-09-14T11:59:24.048Z,16.50
2018-09-14T12:01:53.739Z,18.53
2018-09-14T12:04:23.372Z,18.03
2018-09-14T12:06:53.399Z,14.97
2018-09-14T12:09:23.402Z,15.33
2018-09-14T12:11:53.068Z,18.00
2018-09-14T12:14:24.308Z,14.23
2018-09-14T12:16:53.641Z,15.23
2018-09-14T12:19:25.138Z,11.93
2018-09-14T12:21:54.387Z,19.20
2018-09-14T12:24:23.751Z,11.50
2018-09-14T12:26:53.112Z,10.70
2018-09-14T12:29:24.197Z,10.47
2018-09-14T12:31:54.739Z,8.13
2018-09-14T12:34:24.190Z,13.27
2018-09-14T12:36:55.248Z,9.00
2018-09-14T12:39:25.169Z,11.47
2018-09-14T12:41:55.508Z,7.93
2018-09-14T12:44:25.529Z,7.63
2018-09-14T12:46:56.090Z,12.47
2018-09-14T12:49:26.307Z,9.73
2018-09-14T12:51:55.614Z,9.73
2018-09-14T12:54:25.928Z,10.10
2018-09-14T12:56:55.517Z,10.97
2018-09-14T12:59:27.654Z,14.90
2018-09-14T13:01:57.585Z,11.70
2018-09-14T13:04:27.226Z,9.87
2018-09-14T13:06:56.576Z,11.37
2018-09-14T13:09:25.858Z,12.93
2018-09-14T13:11:55.321Z,12.23
2018-09-14T13:14:25.680Z,12.37
2018-09-14T13:16:57.187Z,8.67
2018-09-14T13:19:26.958Z,7.47
2018-09-14T13:21:56.306Z,9.90
2018-09-14T13:24:26.567Z,10.30
2018-09-14T13:26:55.931Z,7.53
2018-09-14T13:29:26.188Z,8.83
2018-09-14T13:31:56.306Z,8.43
2018-09-14T13:34:26.504Z,9.67
2018-09-14T13:36:55.931Z,7.87
2018-09-14T13:39:27.330Z,10.17
2018-09-14T13:41:56.554Z,8.23
2018-09-14T13:44:26.769Z,19.13
2018-09-14T13:47:00.585Z,9.03
2018-09-14T13:49:30.092Z,9.13
2018-09-14T13:52:00.072Z,13.80
2018-09-14T13:54:29.293Z,8.77
2018-09-14T13:56:58.841Z,9.17
2018-09-14T13:59:30.792Z,8.10
2018-09-14T14:02:00.187Z,11.67
2018-09-14T14:04:29.400Z,9.30
2018-09-14T14:07:00.070Z,9.97
2018-09-14T14:09:29.702Z,10.20
2018-09-14T14:11:59.147Z,11.63
2018-09-14T14:14:34.619Z,9.70
2018-09-14T14:17:06.018Z,9.03
2018-09-14T14:19:39.429Z,8.30
2018-09-14T14:22:09.315Z,7.80
2018-09-14T14:24:40.217Z,9.93
2018-09-14T14:27:10.422Z,11.07
2018-09-14T14:29:41.805Z,10.57
2018-09-14T14:32:15.951Z,8.13
2018-09-14T14:34:45.317Z,9.20
2018-09-14T14:37:14.507Z,8.67
2018-09-14T14:39:43.845Z,8.70
2018-09-14T14:42:13.985Z,8.67
2018-09-14T14:44:44.455Z,7.57
2018-09-14T14:47:13.851Z,10.97
2018-09-14T14:49:43.536Z,8.57
2018-09-14T14:52:12.816Z,7.87
2018-09-14T14:54:42.196Z,6.43
2018-09-14T14:57:12.088Z,7.97
2018-09-14T14:59:43.906Z,7.57
2018-09-14T15:02:16.440Z,6.73
2018-09-14T15:04:46.722Z,6.60
2018-09-14T15:07:15.991Z,10.23
2018-09-14T15:09:47.807Z,7.43
2018-09-14T15:12:17.993Z,9.33
2018-09-14T15:14:48.582Z,8.20
2018-09-14T15:17:18.146Z,9.77
2018-09-14T15:19:47.586Z,9.87
2018-09-14T15:22:17.652Z,8.20
2018-09-14T15:24:49.701Z,10.40
2018-09-14T15:27:19.275Z,12.00
2018-09-14T15:29:49.947Z,9.77
2018-09-14T15:32:20.033Z,8.23
2018-09-14T15:34:49.435Z,8.50
2018-09-14T15:37:18.641Z,8.70
2018-09-14T15:39:48.025Z,10.73
2018-09-14T15:42:18.536Z,7.17
2018-09-14T15:44:48.791Z,6.23
2018-09-14T15:47:19.386Z,10.40
2018-09-14T15:49:49.857Z,7.00
2018-09-14T15:52:19.114Z,7.70
2018-09-14T15:54:48.555Z,10.93
2018-09-14T15:57:18.243Z,9.80
2018-09-14T15:59:47.769Z,8.87
2018-09-14T16:02:17.385Z,7.33
2018-09-14T16:04:47.077Z,10.93
2018-09-14T16:07:16.271Z,11.23
2018-09-14T16:09:45.613Z,7.77
2018-09-14T16:12:15.257Z,9.40
2018-09-14T16:14:44.571Z,10.03
2018-09-14T16:17:14.161Z,7.63
2018-09-14T16:19:44.021Z,6.83
2018-09-14T16:22:13.601Z,8.03
2018-09-14T16:24:43.118Z,8.03
2018-09-14T16:27:13.448Z,10.20
2018-09-14T16:29:42.646Z,6.47
2018-09-14T16:32:12.173Z,9.10
2018-09-14T16:34:41.969Z,7.70
2018-09-14T16:37:11.583Z,8.03
2018-09-14T16:39:41.779Z,8.93
2018-09-14T16:42:12.359Z,10.67
2018-09-14T16:44:43.595Z,7.63
2018-09-14T16:47:13.366Z,5.70
2018-09-14T16:49:43.995Z,8.93
2018-09-14T16:52:13.726Z,10.23
2018-09-14T16:54:43.087Z,7.13
2018-09-14T16:57:12.828Z,7.67
2018-09-14T16:59:42.530Z,8.40
2018-09-14T17:02:16.331Z,6.80
2018-09-14T17:04:47.321Z,6.07
2018-09-14T17:07:17.440Z,4.70
2018-09-14T17:09:46.771Z,8.37
2018-09-14T17:12:17.285Z,6.87
2018-09-14T17:14:46.638Z,9.23
2018-09-14T17:17:16.010Z,8.07
2018-09-14T17:19:50.457Z,9.20
2018-09-14T17:22:20.788Z,8.37
2018-09-14T17:24:53.161Z,5.40
2018-09-14T17:27:26.306Z,8.40
2018-09-14T17:30:02.057Z,7.10
2018-09-14T17:32:32.440Z,6.13
2018-09-14T17:35:04.010Z,9.93
2018-09-14T17:37:33.777Z,10.63
2018-09-14T17:40:03.968Z,6.93
2018-09-14T17:42:33.785Z,5.97
2018-09-14T17:45:05.857Z,5.87
2018-09-14T17:47:38.721Z,7.47
2018-09-14T17:50:11.418Z,10.60
2018-09-14T17:52:43.180Z,8.80
2018-09-14T17:55:13.043Z,8.97
2018-09-14T17:57:44.328Z,9.77
2018-09-14T18:00:13.612Z,6.80
2018-09-14T18:02:43.030Z,8.27
2018-09-14T18:07:52.547Z,6.57
2018-09-14T18:10:27.436Z,13.83
2018-09-14T18:13:01.630Z,9.20
2018-09-14T18:15:33.375Z,9.23
2018-09-14T18:18:04.182Z,8.63
2018-09-14T18:20:38.094Z,9.43
2018-09-14T18:23:11.511Z,10.53
2018-09-14T18:25:41.886Z,11.10
2018-09-14T18:28:12.628Z,9.40
2018-09-14T18:30:45.796Z,9.07
2018-09-14T18:33:16.091Z,7.57
2018-09-14T18:36:00.236Z,9.10
2018-09-14T18:38:29.841Z,8.20
2018-09-14T18:40:59.200Z,8.57
2018-09-14T18:43:31.325Z,7.83
2018-09-14T18:46:02.371Z,9.00
2018-09-14T18:48:38.754Z,6.70
2018-09-14T18:51:11.804Z,7.67
2018-09-14T18:53:42.451Z,13.47
2018-09-14T18:56:13.346Z,9.70
2018-09-14T18:58:45.609Z,7.00
2018-09-14T19:01:18.377Z,13.53
2018-09-14T19:03:51.623Z,10.07
2018-09-14T19:06:24.661Z,7.70
2018-09-14T19:08:54.785Z,8.90
2018-09-14T19:11:24.951Z,11.37
2018-09-14T19:13:56.529Z,9.37
2018-09-14T19:16:27.710Z,8.47
2018-09-14T19:18:58.916Z,9.33
2018-09-14T19:21:28.658Z,7.10
2018-09-14T19:24:01.781Z,8.43
2018-09-14T19:26:32.164Z,6.07
2018-09-14T19:29:07.341Z,7.33
2018-09-14T19:31:38.579Z,6.30
2018-09-14T19:34:10.066Z,6.00
2018-09-14T19:36:45.622Z,5.87
2018-09-14T19:39:15.839Z,8.70
2018-09-14T19:41:45.711Z,8.80
2018-09-14T19:44:16.321Z,6.43
2018-09-14T19:46:45.584Z,6.23
2018-09-14T19:49:16.456Z,6.67
2018-09-14T19:51:46.517Z,8.70
2018-09-14T19:54:18.201Z,5.73
2018-09-14T19:56:48.784Z,4.27
2018-09-14T19:59:24.121Z,6.57
2018-09-14T20:01:53.723Z,6.63
2018-09-14T20:04:24.423Z,4.87
2018-09-14T20:06:55.695Z,6.83
2018-09-14T20:09:26.887Z,6.07
2018-09-14T20:11:56.886Z,8.67
2018-09-14T20:14:29.501Z,7.40
2018-09-14T20:16:59.563Z,9.23
2018-09-14T20:19:30.482Z,5.30
2018-09-14T20:22:00.842Z,9.73
2018-09-14T20:24:33.826Z,7.00
2018-09-14T20:27:04.833Z,7.03
2018-09-14T20:29:36.275Z,8.03
2018-09-14T20:32:07.779Z,5.47
2018-09-14T20:34:37.699Z,7.00
2018-09-14T20:37:08.935Z,8.73
2018-09-14T20:39:38.753Z,7.77
2018-09-14T20:42:08.000Z,8.93
2018-09-14T20:44:40.950Z,7.67
2018-09-14T20:47:15.468Z,5.87
2018-09-14T20:49:46.579Z,9.83
2018-09-14T20:52:16.734Z,7.27
2018-09-14T20:54:50.306Z,11.77
2018-09-14T20:57:20.644Z,10.83
2018-09-14T20:59:49.820Z,6.80
2018-09-14T21:02:20.359Z,8.47
2018-09-14T21:04:52.192Z,9.57
2018-09-14T21:07:22.160Z,6.53
2018-09-14T21:09:53.240Z,6.63
2018-09-14T21:12:22.503Z,7.10
2018-09-14T21:14:53.963Z,8.93
2018-09-14T21:17:23.901Z,11.47
2018-09-14T21:19:55.368Z,8.40
2018-09-14T21:22:25.363Z,9.43
2018-09-14T21:28:02.265Z,10.23
2018-09-14T21:30:45.727Z,11.00
2018-09-14T21:33:15.028Z,9.77
2018-09-14T21:35:45.330Z,9.33
2018-09-14T21:38:18.240Z,6.70
2018-09-14T21:40:50.490Z,9.97
2018-09-14T21:43:24.539Z,5.20
2018-09-14T21:46:00.584Z,7.57
2018-09-14T21:48:35.044Z,7.13
2018-09-14T21:51:05.805Z,9.03
2018-09-14T21:53:36.266Z,7.23
2018-09-14T21:56:06.534Z,6.53
2018-09-14T21:58:38.358Z,5.37
2018-09-14T22:01:16.230Z,7.77
2018-09-14T22:03:46.344Z,7.10
2018-09-14T22:06:16.500Z,6.70
2018-09-14T22:08:47.368Z,9.17
2018-09-14T22:11:17.238Z,5.87
2018-09-14T22:13:49.719Z,7.20
2018-09-14T22:16:22.214Z,6.87
2018-09-14T22:18:51.684Z,9.07
2018-09-14T22:21:24.353Z,8.13
2018-09-14T22:23:54.353Z,7.53
2018-09-14T22:26:24.783Z,8.27
2018-09-14T22:28:55.003Z,9.77
2018-09-14T22:31:25.328Z,6.80
2018-09-14T22:33:54.573Z,13.53
2018-09-14T22:36:23.788Z,8.67
2018-09-14T22:38:54.212Z,11.00
2018-09-14T22:41:25.989Z,7.37
2018-09-14T22:43:58.128Z,8.90
2018-09-14T22:46:27.323Z,7.13
2018-09-14T22:48:56.414Z,6.67
2018-09-14T22:51:26.357Z,8.63
2018-09-14T22:53:55.972Z,6.33
2018-09-14T22:56:25.160Z,7.30
2018-09-14T22:58:54.315Z,6.13
2018-09-14T23:01:23.461Z,9.83
2018-09-14T23:03:52.692Z,5.93
2018-09-14T23:06:26.548Z,6.93
2018-09-14T23:08:57.457Z,9.27
2018-09-14T23:11:33.308Z,4.87
2018-09-14T23:14:02.375Z,5.07
2018-09-14T23:16:33.060Z,4.93
2018-09-14T23:19:03.363Z,6.63
2018-09-14T23:21:34.908Z,5.13
2018-09-14T23:24:05.528Z,4.87
2018-09-14T23:26:35.938Z,5.30
2018-09-14T23:29:05.100Z,5.40
2018-09-14T23:31:34.148Z,7.27
2018-09-14T23:34:03.425Z,6.77
2018-09-14T23:36:34.667Z,6.43
2018-09-14T23:39:05.889Z,8.60
2018-09-14T23:41:38.089Z,5.00
2018-09-14T23:44:07.391Z,9.13
2018-09-14T23:46:36.524Z,6.40
2018-09-14T23:49:05.690Z,6.27
2018-09-14T23:51:35.181Z,4.80
2018-09-14T23:54:04.964Z,4.93
2018-09-14T23:56:34.729Z,3.17
2018-09-14T23:59:04.943Z,5.87
